»·PEaware :: N1882S KVNY-KSBA

N1882S :: KVNY-KSBA

FLIGHT INFORMATION

Flight Status: Arrived
Operator: Privately registered:
United States
More flights under this callsign
Pilot: Steve M. (17312)
Aircraft: CESSNA 172 SKYHAWK
(C172)
More flights by this aircraft type
Origin: KVNY Van Nuys
United States
Destination: KSBA Santa Barbara Mun
United States
More flights between these airports :: More routes between these airports
Route: +
File this flight plan on PilotEdge
Remarks:
Altitude:
(Current/Filed)
0ft
Speed:
(Current/Filed)
0kts
Departed: 29-Aug-18 09:46 AM
Arrived: 29-Aug-18 10:30 AM
Distance/Time
Traveled:
79nm/0:44
Distance/Time
To Go:
Arrived

Flight Plot

Page will automatically refresh every two minutes.


Map Options




Map Legend


Flown Route
Filed Route
Departure Airport
Arrival Airport
Navaid (VOR, NDB)
Fix

Horizontal Profiles

Position Reports

Time Latitude Longitude Heading Altitude Ground
Speed
29-Aug-18 09:42 34.215403 -118.498942 40 806ft 7kts
29-Aug-18 09:43 34.217603 -118.496136 71 806ft 13kts
29-Aug-18 09:44 34.217231 -118.493076 96 806ft 0kts
29-Aug-18 09:45 34.218159 -118.492363 353 806ft 12kts
29-Aug-18 09:46 34.219070 -118.492218 88 806ft 2kts
29-Aug-18 09:47 34.209808 -118.490576 172 956ft 79kts
29-Aug-18 09:48 34.186678 -118.487371 170 1728ft 89kts
29-Aug-18 09:49 34.174203 -118.504467 280 2431ft 96kts
29-Aug-18 09:50 34.177463 -118.538846 273 2898ft 110kts
29-Aug-18 09:51 34.178461 -118.576035 275 3318ft 106kts
29-Aug-18 09:52 34.181873 -118.610268 281 3912ft 102kts
29-Aug-18 09:53 34.180772 -118.644765 284 4403ft 105kts
29-Aug-18 09:54 34.187919 -118.677772 285 4495ft 112kts
29-Aug-18 09:55 34.193370 -118.713994 279 4495ft 110kts
29-Aug-18 09:56 34.197946 -118.751042 275 4494ft 112kts
29-Aug-18 09:57 34.198930 -118.789038 272 4493ft 113kts
29-Aug-18 09:58 34.199788 -118.826665 273 4493ft 109kts
29-Aug-18 09:59 34.200550 -118.863276 273 4493ft 108kts
29-Aug-18 10:00 34.201277 -118.899515 274 4493ft 108kts
29-Aug-18 10:01 34.203491 -118.935816 276 4493ft 108kts
29-Aug-18 10:02 34.205740 -118.972132 276 4493ft 108kts
29-Aug-18 10:03 34.207919 -119.008068 276 4493ft 108kts
29-Aug-18 10:04 34.210070 -119.044340 276 4492ft 108kts
29-Aug-18 10:05 34.212219 -119.080424 276 4501ft 107kts
29-Aug-18 10:06 34.223572 -119.112050 301 4500ft 105kts
29-Aug-18 10:07 34.237448 -119.143257 296 4500ft 105kts
29-Aug-18 10:08 34.250450 -119.174846 296 4499ft 104kts
29-Aug-18 10:09 34.263952 -119.205405 298 4499ft 104kts
29-Aug-18 10:10 34.277939 -119.236085 296 4499ft 104kts
29-Aug-18 10:11 34.291908 -119.266642 296 4491ft 105kts
29-Aug-18 10:12 34.305602 -119.295622 296 4490ft 104kts
29-Aug-18 10:13 34.320162 -119.326479 294 4490ft 106kts
29-Aug-18 10:14 34.334226 -119.358090 294 4489ft 107kts
29-Aug-18 10:15 34.348542 -119.389741 294 4489ft 107kts
29-Aug-18 10:16 34.363138 -119.421424 294 4489ft 107kts
29-Aug-18 10:17 34.377205 -119.453520 292 4489ft 108kts
29-Aug-18 10:18 34.390120 -119.482955 291 4228ft 100kts
29-Aug-18 10:19 34.402904 -119.514376 290 3725ft 106kts
29-Aug-18 10:20 34.413796 -119.547763 278 3222ft 106kts
29-Aug-18 10:21 34.418025 -119.582897 271 2720ft 104kts
29-Aug-18 10:22 34.420104 -119.612146 270 2302ft 105kts
29-Aug-18 10:23 34.422796 -119.652249 270 2000ft 105kts
29-Aug-18 10:24 34.425024 -119.685522 270 1990ft 95kts
29-Aug-18 10:25 34.430786 -119.711163 286 1954ft 98kts
29-Aug-18 10:26 34.440630 -119.743476 282 1655ft 100kts
29-Aug-18 10:27 34.445287 -119.779933 269 1313ft 81kts
29-Aug-18 10:28 34.445657 -119.802077 262 1114ft 71kts
29-Aug-18 10:29 34.443900 -119.825717 255 938ft 69kts
29-Aug-18 10:30 34.434839 -119.841537 171 419ft 76kts
29-Aug-18 10:31 34.424682 -119.837710 353 12ft 12kts
29-Aug-18 10:32 34.428560 -119.838917 349 14ft 18kts
29-Aug-18 10:33 34.430549 -119.839704 292 14ft 0kts
29-Aug-18 10:34 34.430588 -119.839918 268 14ft 6kts
29-Aug-18 10:35 34.415031 -119.835719 167 314ft 90kts
29-Aug-18 10:36 34.392342 -119.825886 160 1193ft 86kts
29-Aug-18 10:37 34.370161 -119.815809 161 2014ft 85kts
29-Aug-18 10:38 34.364736 -119.834957 313 2777ft 97kts
29-Aug-18 10:39 34.385156 -119.855816 315 3530ft 96kts
29-Aug-18 10:40 34.405614 -119.876014 315 4243ft 95kts
29-Aug-18 10:41 34.428580 -119.898430 315 4497ft 119kts
29-Aug-18 10:42 34.453098 -119.922927 312 4504ft 110kts
29-Aug-18 10:43 34.471671 -119.950581 292 4512ft 103kts
29-Aug-18 10:44 34.484506 -119.981397 294 4520ft 101kts
29-Aug-18 10:45 34.496793 -120.012051 294 4529ft 100kts
29-Aug-18 10:46 34.508509 -120.043065 294 4506ft 103kts

Navigation Log

Ident Type
1. KVNY Airport
2. KSBA Airport